Time;durP1;ratioP1;P1;durP2;ratioP2;P2;SDS_P1;SDS_P2;PMS_P1;PMS_P2;Temp;Humidity;BMP_temperature;BMP_pressure;BME280_temperature;BME280_humidity;BME280_pressure;Samples;Min_cycle;Max_cycle;Signal;HPM_P1;HPM_P2
2023/02/17 00:02:16;;;;;;;28.38;21.67;;;5.80;99.90;;;;;;5075781;28;20374;-91
2023/02/17 00:04:42;;;;;;;29.90;21.85;;;5.90;99.90;;;;;;5074925;28;20075;-90
2023/02/17 00:07:07;;;;;;;28.02;21.27;;;5.90;99.90;;;;;;5076401;28;20029;-91
2023/02/17 00:09:33;;;;;;;27.45;20.75;;;6.20;99.90;;;;;;5075906;28;20521;-90
2023/02/17 00:11:59;;;;;;;29.73;21.33;;;5.90;99.90;;;;;;5076067;28;20017;-91
2023/02/17 00:14:24;;;;;;;29.35;20.70;;;5.90;99.90;;;;;;5075862;28;20436;-90
2023/02/17 00:16:50;;;;;;;26.98;20.40;;;6.00;99.90;;;;;;5075527;28;20104;-90
2023/02/17 00:19:24;;;;;;;28.45;21.20;;;6.00;99.90;;;;;;5074659;28;20037;-90
2023/02/17 00:21:51;;;;;;;31.48;21.00;;;6.00;99.90;;;;;;5075902;28;20032;-90
2023/02/17 00:24:17;;;;;;;28.58;20.88;;;6.10;99.90;;;;;;5075765;28;20048;-90
2023/02/17 00:26:43;;;;;;;28.10;20.95;;;5.80;99.90;;;;;;5075659;28;20055;-90
2023/02/17 00:29:09;;;;;;;29.92;20.30;;;5.50;99.90;;;;;;5074465;28;20457;-90
2023/02/17 00:31:34;;;;;;;31.98;21.73;;;5.60;99.90;;;;;;5075457;28;20025;-90
2023/02/17 00:34:00;;;;;;;29.80;21.48;;;5.60;99.90;;;;;;5075716;28;20040;-90
2023/02/17 00:36:26;;;;;;;28.35;20.80;;;5.60;99.90;;;;;;5075613;28;20427;-90
2023/02/17 00:38:54;;;;;;;31.00;21.17;;;5.80;99.90;;;;;;5075122;28;20029;-90
2023/02/17 00:41:20;;;;;;;29.75;21.40;;;5.80;99.90;;;;;;5076144;28;20048;-90
2023/02/17 00:43:46;;;;;;;26.02;19.95;;;5.60;99.90;;;;;;5076102;28;20024;-90
2023/02/17 00:46:13;;;;;;;27.48;20.60;;;5.60;99.90;;;;;;5074966;28;20021;-90
2023/02/17 00:48:38;;;;;;;27.90;20.98;;;5.70;99.90;;;;;;5075271;28;20035;-90
2023/02/17 00:51:05;;;;;;;26.83;20.63;;;5.80;99.90;;;;;;5075230;28;20024;-90
2023/02/17 00:53:30;;;;;;;25.35;19.95;;;5.70;99.90;;;;;;5075283;28;20034;-90
2023/02/17 00:55:56;;;;;;;27.27;20.40;;;5.60;99.90;;;;;;5073854;28;20400;-90
2023/02/17 00:58:22;;;;;;;25.42;19.52;;;5.90;99.90;;;;;;5075192;28;20017;-90
2023/02/17 01:00:48;;;;;;;24.85;18.83;;;5.70;99.90;;;;;;5073738;28;20056;-90
2023/02/17 01:03:13;;;;;;;26.38;18.58;;;5.80;99.90;;;;;;5075164;28;20021;-90
2023/02/17 01:05:41;;;;;;;28.00;19.90;;;5.70;99.90;;;;;;5074924;28;20032;-90
2023/02/17 01:08:07;;;;;;;26.05;19.55;;;5.70;99.90;;;;;;5075057;28;20066;-90
2023/02/17 01:10:36;;;;;;;28.75;19.38;;;5.70;99.90;;;;;;5074948;28;20032;-90
2023/02/17 01:13:02;;;;;;;23.48;18.35;;;5.60;99.90;;;;;;5074745;28;20025;-90
2023/02/17 01:15:27;;;;;;;27.88;19.05;;;5.80;99.90;;;;;;5073389;28;20036;-90
2023/02/17 01:17:53;;;;;;;27.95;19.17;;;5.80;99.90;;;;;;5073573;28;20024;-90
2023/02/17 01:20:19;;;;;;;23.13;17.73;;;5.80;99.90;;;;;;5073388;28;20115;-90
2023/02/17 01:22:44;;;;;;;25.83;18.30;;;5.80;99.90;;;;;;5074792;28;20104;-90
2023/02/17 01:25:10;;;;;;;25.05;18.83;;;5.80;99.90;;;;;;5074533;28;20020;-90
2023/02/17 01:27:35;;;;;;;23.60;17.80;;;5.70;99.90;;;;;;5074625;28;20489;-90
2023/02/17 01:30:02;;;;;;;23.25;17.30;;;5.60;99.90;;;;;;5074295;28;20017;-90
2023/02/17 01:32:28;;;;;;;24.30;17.48;;;5.70;99.90;;;;;;5073122;28;20417;-90
2023/02/17 01:34:53;;;;;;;24.90;18.67;;;5.60;99.90;;;;;;5074350;28;20033;-90
2023/02/17 01:37:19;;;;;;;28.30;19.80;;;5.60;99.90;;;;;;5073127;28;20028;-90
2023/02/17 01:39:44;;;;;;;26.80;19.52;;;5.40;99.90;;;;;;5074426;28;20366;-90
2023/02/17 01:42:19;;;;;;;26.48;19.00;;;5.60;99.90;;;;;;5074164;28;20566;-90
2023/02/17 01:45:15;;;;;;;25.67;19.25;;;5.70;99.90;;;;;;5074198;28;20111;-90
2023/02/17 01:47:41;;;;;;;28.98;20.38;;;5.20;99.90;;;;;;5074320;28;20024;-90
2023/02/17 01:50:09;;;;;;;26.30;19.88;;;5.30;99.90;;;;;;5075051;28;20367;-91
2023/02/17 01:52:35;;;;;;;26.25;19.20;;;5.10;99.90;;;;;;5073462;28;20074;-90
2023/02/17 01:55:08;;;;;;;25.35;19.00;;;4.90;99.90;;;;;;5074218;28;20029;-90
2023/02/17 01:57:37;;;;;;;23.23;18.10;;;5.00;99.90;;;;;;5073430;28;20244;-89
2023/02/17 02:00:05;;;;;;;26.27;18.30;;;5.00;99.90;;;;;;5073827;28;20041;-89
2023/02/17 02:02:31;;;;;;;24.27;18.55;;;5.20;99.90;;;;;;5074082;28;20043;-90
2023/02/17 02:04:57;;;;;;;24.83;17.48;;;5.50;99.90;;;;;;5073536;28;20040;-90
2023/02/17 02:07:29;;;;;;;23.48;18.33;;;5.50;99.90;;;;;;5072612;28;20025;-90
2023/02/17 02:09:56;;;;;;;22.85;17.38;;;5.40;99.90;;;;;;5072777;28;20032;-90
2023/02/17 02:12:32;;;;;;;25.75;18.10;;;5.20;99.90;;;;;;5073185;28;20021;-90
2023/02/17 02:15:02;;;;;;;23.67;17.40;;;4.90;99.90;;;;;;5073746;28;20044;-90
2023/02/17 02:17:49;;;;;;;24.42;17.17;;;5.00;99.90;;;;;;5073686;28;20017;-90
2023/02/17 02:20:44;;;;;;;31.77;18.40;;;4.80;99.90;;;;;;5072437;28;20397;-90
2023/02/17 02:23:12;;;;;;;24.00;17.33;;;4.80;99.90;;;;;;5072328;28;20032;-90
2023/02/17 02:26:06;;;;;;;25.20;17.02;;;5.20;99.90;;;;;;5073313;28;20039;-90
2023/02/17 02:28:43;;;;;;;23.25;17.35;;;5.20;99.90;;;;;;5073157;28;20530;-90
2023/02/17 02:31:22;;;;;;;25.08;18.10;;;5.00;99.90;;;;;;5073193;28;20078;-90
2023/02/17 02:34:08;;;;;;;24.55;16.63;;;5.10;99.90;;;;;;5071951;28;20111;-90
2023/02/17 02:36:48;;;;;;;28.25;17.67;;;4.80;99.90;;;;;;5073408;28;20028;-90
2023/02/17 02:39:17;;;;;;;26.10;18.27;;;4.60;99.90;;;;;;5073239;28;20087;-90
2023/02/17 02:41:49;;;;;;;25.27;19.42;;;4.40;99.90;;;;;;5072924;28;20048;-90
2023/02/17 02:44:18;;;;;;;25.35;18.23;;;4.60;99.90;;;;;;5073333;28;20191;-91
2023/02/17 02:46:44;;;;;;;27.17;18.90;;;4.50;99.90;;;;;;5073152;28;20056;-91
2023/02/17 02:49:10;;;;;;;24.73;18.13;;;4.30;99.90;;;;;;5072010;28;20066;-90
2023/02/17 02:51:43;;;;;;;24.80;18.00;;;4.70;99.90;;;;;;5073236;28;20086;-89
2023/02/17 02:54:24;;;;;;;26.27;18.67;;;4.70;99.90;;;;;;5073196;28;20021;-90
2023/02/17 02:56:49;;;;;;;25.42;18.75;;;4.60;99.90;;;;;;5052773;28;20083;-91
2023/02/17 02:59:41;;;;;;;24.20;18.52;;;4.50;99.90;;;;;;5053593;28;20025;-90
2023/02/17 03:02:35;;;;;;;24.92;18.88;;;4.80;99.90;;;;;;5054220;28;20056;-90
2023/02/17 03:05:06;;;;;;;25.75;18.38;;;4.90;99.90;;;;;;5054250;28;20107;-90
2023/02/17 03:07:58;;;;;;;23.33;18.13;;;4.50;99.90;;;;;;5052898;28;20025;-90
2023/02/17 03:10:24;;;;;;;24.88;17.58;;;4.60;99.90;;;;;;5052485;28;20028;-90
2023/02/17 03:12:51;;;;;;;23.00;16.83;;;4.80;99.90;;;;;;5052905;28;20151;-90
2023/02/17 03:15:30;;;;;;;24.52;18.30;;;5.20;99.90;;;;;;5052569;28;20197;-89
2023/02/17 03:18:01;;;;;;;24.05;17.25;;;4.80;99.90;;;;;;5052773;28;20029;-90
2023/02/17 03:20:35;;;;;;;26.02;19.05;;;4.80;99.90;;;;;;5052907;28;20551;-90
2023/02/17 03:23:02;;;;;;;24.17;18.25;;;5.10;99.90;;;;;;5053301;28;20564;-90
2023/02/17 03:25:27;;;;;;;25.83;18.73;;;4.70;99.90;;;;;;5056716;28;20029;-90
2023/02/17 03:27:53;;;;;;;26.48;19.58;;;5.10;99.90;;;;;;5055600;28;20059;-90
2023/02/17 03:30:19;;;;;;;26.70;19.33;;;4.80;99.90;;;;;;5056951;28;20035;-90
2023/02/17 03:32:45;;;;;;;26.60;19.17;;;4.70;99.90;;;;;;5070590;28;20394;-90
2023/02/17 03:35:12;;;;;;;27.75;19.23;;;5.20;99.90;;;;;;5076734;28;20111;-90
2023/02/17 03:37:38;;;;;;;26.40;18.42;;;5.00;99.90;;;;;;5076719;28;20024;-90
2023/02/17 03:40:05;;;;;;;24.17;17.95;;;5.20;99.90;;;;;;5076433;28;20059;-90
2023/02/17 03:42:31;;;;;;;23.95;17.55;;;4.90;99.90;;;;;;5076596;28;20048;-90
2023/02/17 03:44:56;;;;;;;24.08;17.45;;;4.90;99.90;;;;;;5076654;28;20047;-90
2023/02/17 03:47:22;;;;;;;23.63;17.23;;;5.00;99.90;;;;;;5076727;28;20052;-90
2023/02/17 03:49:48;;;;;;;24.60;18.20;;;4.90;99.90;;;;;;5076792;28;20103;-91
2023/02/17 03:52:13;;;;;;;28.60;18.65;;;5.00;99.90;;;;;;5076378;28;20495;-89
2023/02/17 03:54:39;;;;;;;25.85;18.92;;;5.00;99.90;;;;;;5075756;28;20043;-90
2023/02/17 03:57:05;;;;;;;22.27;16.98;;;5.30;99.90;;;;;;5075189;28;20028;-90
2023/02/17 03:59:30;;;;;;;26.63;18.90;;;5.20;99.90;;;;;;5076390;28;20034;-90
2023/02/17 04:01:56;;;;;;;25.30;18.95;;;4.90;99.90;;;;;;5076262;28;20017;-90
2023/02/17 04:04:21;;;;;;;28.45;19.27;;;4.90;99.90;;;;;;5075939;28;20035;-90
2023/02/17 04:06:47;;;;;;;27.45;19.35;;;5.10;99.90;;;;;;5074924;28;20025;-91
2023/02/17 04:09:13;;;;;;;28.08;19.48;;;4.90;99.90;;;;;;5074891;28;20035;-90
2023/02/17 04:11:38;;;;;;;25.02;19.38;;;4.90;99.90;;;;;;5076766;28;20095;-90
2023/02/17 04:14:04;;;;;;;26.85;18.73;;;4.70;99.90;;;;;;5077034;28;20049;-91
2023/02/17 04:16:29;;;;;;;25.58;18.15;;;5.10;99.90;;;;;;5077144;28;20033;-91
2023/02/17 04:18:55;;;;;;;25.75;19.58;;;5.30;99.90;;;;;;5076320;28;20028;-90
2023/02/17 04:21:21;;;;;;;27.23;18.95;;;5.00;99.90;;;;;;5074856;28;20020;-90
2023/02/17 04:23:46;;;;;;;27.20;19.52;;;5.10;99.90;;;;;;5074280;28;20035;-91
2023/02/17 04:26:12;;;;;;;26.77;19.48;;;5.20;99.90;;;;;;5075740;28;20044;-90
2023/02/17 04:28:39;;;;;;;27.60;19.38;;;5.00;99.90;;;;;;5075802;28;20024;-90
2023/02/17 04:31:05;;;;;;;26.52;18.63;;;5.00;99.90;;;;;;5075532;28;20031;-90
2023/02/17 04:33:31;;;;;;;25.38;18.45;;;5.20;99.90;;;;;;5074458;28;20025;-90
2023/02/17 04:35:58;;;;;;;25.90;19.45;;;5.30;99.90;;;;;;5075759;28;20051;-90
2023/02/17 04:38:33;;;;;;;26.30;18.35;;;5.10;99.90;;;;;;5075525;28;20021;-90
2023/02/17 04:41:00;;;;;;;23.00;16.80;;;5.10;99.90;;;;;;5075467;28;20051;-90
2023/02/17 04:43:26;;;;;;;25.50;17.85;;;4.90;99.90;;;;;;5075692;28;20021;-90
2023/02/17 04:45:53;;;;;;;24.67;17.77;;;4.90;99.90;;;;;;5075283;28;20028;-90
2023/02/17 04:48:19;;;;;;;25.58;17.50;;;5.10;99.90;;;;;;5074172;28;20020;-90
2023/02/17 04:50:45;;;;;;;23.02;17.27;;;5.10;99.90;;;;;;5075623;28;20477;-90
2023/02/17 04:53:12;;;;;;;23.05;17.25;;;5.20;99.90;;;;;;5073854;28;20036;-90
2023/02/17 04:55:38;;;;;;;25.42;18.45;;;4.70;99.90;;;;;;5073951;28;20028;-90
2023/02/17 04:58:04;;;;;;;23.80;17.48;;;4.60;99.90;;;;;;5075249;28;20074;-90
2023/02/17 05:00:30;;;;;;;26.77;17.30;;;5.00;99.90;;;;;;5075339;28;20036;-90
2023/02/17 05:02:55;;;;;;;26.77;17.98;;;4.60;99.90;;;;;;5074078;28;20052;-90
2023/02/17 05:05:22;;;;;;;25.38;18.10;;;4.60;99.90;;;;;;5073933;28;20021;-90
2023/02/17 05:07:47;;;;;;;22.40;17.23;;;4.40;99.90;;;;;;5074928;28;20025;-91
2023/02/17 05:10:14;;;;;;;23.98;16.48;;;4.40;99.90;;;;;;5073874;28;20031;-90
2023/02/17 05:12:40;;;;;;;25.23;17.38;;;4.60;99.90;;;;;;5073983;28;20024;-90
2023/02/17 05:15:07;;;;;;;27.65;17.80;;;4.80;99.90;;;;;;5074904;28;20070;-90
2023/02/17 05:17:33;;;;;;;24.15;17.25;;;4.80;99.90;;;;;;5073714;28;20024;-91
2023/02/17 05:19:59;;;;;;;25.40;16.73;;;4.70;99.90;;;;;;5074926;28;20028;-90
2023/02/17 05:22:26;;;;;;;23.25;17.02;;;4.40;99.90;;;;;;5074892;28;20024;-90
2023/02/17 05:24:52;;;;;;;24.42;17.27;;;4.40;99.90;;;;;;5074470;28;20020;-90
2023/02/17 05:27:17;;;;;;;23.23;16.60;;;4.50;99.90;;;;;;5076289;28;20281;-90
2023/02/17 05:29:43;;;;;;;22.40;16.65;;;4.10;99.90;;;;;;5075259;28;20111;-90
2023/02/17 05:32:09;;;;;;;27.00;17.33;;;4.10;99.90;;;;;;5073118;28;20048;-90
2023/02/17 05:34:35;;;;;;;26.10;16.73;;;4.00;99.90;;;;;;5074639;28;20044;-90
2023/02/17 05:37:01;;;;;;;25.08;18.02;;;3.90;99.90;;;;;;5074423;28;20099;-90
2023/02/17 05:39:26;;;;;;;24.45;17.05;;;4.20;99.90;;;;;;5074483;28;20503;-90
2023/02/17 05:41:52;;;;;;;25.83;17.58;;;3.90;99.90;;;;;;5073020;28;20405;-90
2023/02/17 05:44:18;;;;;;;24.10;16.75;;;4.00;99.90;;;;;;5072935;28;20504;-90
2023/02/17 05:46:43;;;;;;;24.08;17.17;;;4.20;99.90;;;;;;5073739;28;20099;-90
2023/02/17 05:49:09;;;;;;;24.08;17.85;;;4.40;99.90;;;;;;5072964;28;20277;-89
2023/02/17 05:51:35;;;;;;;21.90;16.42;;;4.00;99.90;;;;;;5072464;28;20023;-89
2023/02/17 05:54:00;;;;;;;26.23;17.73;;;4.20;99.90;;;;;;5074180;28;20085;-90
2023/02/17 05:56:26;;;;;;;26.70;17.48;;;4.40;99.90;;;;;;5073933;28;20032;-89
2023/02/17 05:58:52;;;;;;;25.33;18.02;;;4.10;99.90;;;;;;5074123;28;20036;-90
2023/02/17 06:01:17;;;;;;;27.20;17.60;;;4.10;99.90;;;;;;5074123;28;20024;-89
2023/02/17 06:03:43;;;;;;;25.70;17.30;;;4.40;99.90;;;;;;5072268;28;20021;-87
2023/02/17 06:06:09;;;;;;;26.25;17.63;;;4.40;99.90;;;;;;5073804;28;20032;-90
2023/02/17 06:08:35;;;;;;;25.05;18.10;;;4.10;99.90;;;;;;5072652;28;20047;-90
2023/02/17 06:11:01;;;;;;;27.52;18.52;;;4.40;99.90;;;;;;5073633;28;20024;-89
2023/02/17 06:13:26;;;;;;;28.48;18.10;;;4.20;99.90;;;;;;5073591;28;20027;-90
2023/02/17 06:15:52;;;;;;;25.80;17.48;;;4.30;99.90;;;;;;5073583;28;20033;-89
2023/02/17 06:18:18;;;;;;;25.35;18.25;;;4.30;99.90;;;;;;5071922;28;20071;-89
2023/02/17 06:20:43;;;;;;;24.38;17.83;;;4.70;99.90;;;;;;5073507;28;20028;-90
2023/02/17 06:23:10;;;;;;;26.60;18.00;;;4.40;99.90;;;;;;5072302;28;20626;-90
2023/02/17 06:25:36;;;;;;;25.23;16.75;;;4.20;99.90;;;;;;5072228;28;20052;-89
2023/02/17 06:28:01;;;;;;;27.60;17.83;;;4.60;99.90;;;;;;5072147;28;20067;-90
2023/02/17 06:30:27;;;;;;;27.70;18.13;;;4.50;99.90;;;;;;5073434;28;20029;-90
2023/02/17 06:32:53;;;;;;;28.33;17.73;;;4.40;99.90;;;;;;5087997;28;20404;-89
2023/02/17 06:35:18;;;;;;;27.38;17.30;;;4.10;99.90;;;;;;5093956;28;20500;-90
2023/02/17 06:37:44;;;;;;;25.13;17.88;;;4.10;99.90;;;;;;5094146;28;20020;-89
2023/02/17 06:40:10;;;;;;;25.00;16.77;;;4.40;99.90;;;;;;5093830;28;20043;-90
2023/02/17 06:42:36;;;;;;;24.33;17.00;;;4.00;99.90;;;;;;5093487;28;20085;-89
2023/02/17 06:45:04;;;;;;;24.50;16.73;;;4.40;99.90;;;;;;5092156;28;20100;-89
2023/02/17 06:47:31;;;;;;;24.35;16.73;;;4.10;99.90;;;;;;5092933;28;20435;-90
2023/02/17 06:49:56;;;;;;;24.17;17.60;;;4.30;99.90;;;;;;5092170;28;20028;-89
2023/02/17 06:52:22;;;;;;;25.55;17.33;;;4.20;99.90;;;;;;5093272;28;20027;-89
2023/02/17 06:54:48;;;;;;;25.33;17.15;;;4.70;99.90;;;;;;5087980;28;20401;-89
2023/02/17 06:57:15;;;;;;;23.65;17.90;;;4.30;99.90;;;;;;5072530;28;20436;-90
2023/02/17 06:59:41;;;;;;;27.33;17.10;;;4.20;99.90;;;;;;5072693;28;20028;-90
2023/02/17 07:02:12;;;;;;;24.63;17.88;;;4.40;99.90;;;;;;5072597;28;20473;-90
2023/02/17 07:04:41;;;;;;;25.75;17.83;;;4.20;99.90;;;;;;5073124;28;20477;-89
2023/02/17 07:07:08;;;;;;;24.10;16.60;;;4.00;99.90;;;;;;5072869;28;20035;-89
2023/02/17 07:09:34;;;;;;;25.48;16.77;;;4.50;99.90;;;;;;5072920;28;20024;-89
2023/02/17 07:12:00;;;;;;;26.40;18.00;;;4.60;99.90;;;;;;5073018;28;20110;-89
2023/02/17 07:14:26;;;;;;;28.25;17.52;;;4.60;99.90;;;;;;5071451;28;20024;-90
2023/02/17 07:16:52;;;;;;;27.60;17.85;;;4.30;99.90;;;;;;5072429;28;20608;-89
2023/02/17 07:19:18;;;;;;;27.55;16.98;;;4.20;99.90;;;;;;5072789;28;20096;-89
2023/02/17 07:21:43;;;;;;;27.05;18.10;;;4.30;99.90;;;;;;5072752;28;20482;-89
2023/02/17 07:24:09;;;;;;;25.27;17.95;;;4.30;99.90;;;;;;5072591;28;20024;-89
2023/02/17 07:26:37;;;;;;;27.42;18.63;;;4.30;99.90;;;;;;5072647;28;20058;-89
2023/02/17 07:29:03;;;;;;;27.17;17.58;;;4.90;99.90;;;;;;5072508;28;20042;-89
2023/02/17 07:31:29;;;;;;;23.90;16.13;;;4.40;99.90;;;;;;5071972;28;20107;-89
2023/02/17 07:33:55;;;;;;;24.77;16.70;;;4.40;99.90;;;;;;5072348;28;20059;-90
2023/02/17 07:36:21;;;;;;;25.58;17.60;;;4.50;99.90;;;;;;5072642;28;20060;-90
2023/02/17 07:38:47;;;;;;;23.85;17.70;;;4.50;99.90;;;;;;5072591;28;20024;-90
2023/02/17 07:41:16;;;;;;;28.30;18.45;;;4.50;99.90;;;;;;5072344;28;20052;-90
2023/02/17 07:43:41;;;;;;;27.17;17.52;;;4.80;99.90;;;;;;5072581;28;20021;-90
2023/02/17 07:46:08;;;;;;;27.75;17.40;;;4.90;99.90;;;;;;5072416;28;20149;-90
2023/02/17 07:48:34;;;;;;;25.27;17.63;;;4.70;99.90;;;;;;5073440;28;20029;-90
2023/02/17 07:51:14;;;;;;;24.40;16.95;;;5.10;99.90;;;;;;5073976;28;20029;-90
2023/02/17 07:53:40;;;;;;;26.35;17.08;;;4.90;99.90;;;;;;5073655;28;20088;-90
2023/02/17 07:56:08;;;;;;;26.05;17.67;;;4.90;99.90;;;;;;5072556;28;20494;-90
2023/02/17 07:58:36;;;;;;;26.42;17.17;;;5.30;99.90;;;;;;5072440;28;20029;-90
2023/02/17 08:01:10;;;;;;;32.00;17.63;;;5.30;99.90;;;;;;5072246;28;20053;-90
2023/02/17 08:03:36;;;;;;;30.55;17.08;;;5.60;99.90;;;;;;5072418;28;20389;-91
2023/02/17 08:06:01;;;;;;;33.45;17.42;;;6.00;99.90;;;;;;5072485;28;20047;-90
2023/02/17 08:13:58;;;;;;;29.33;16.98;;;7.40;99.90;;;;;;5076252;28;20401;-90
2023/02/17 08:16:26;;;;;;;31.02;18.10;;;9.60;99.90;;;;;;5075568;28;20021;-90
2023/02/17 08:18:55;;;;;;;36.83;18.55;;;10.30;99.90;;;;;;5075991;28;20374;-90
2023/02/17 08:21:22;;;;;;;31.20;18.85;;;11.60;99.90;;;;;;5075932;28;20024;-90
2023/02/17 08:23:47;;;;;;;31.58;18.63;;;14.00;99.90;;;;;;5074554;28;20025;-90
2023/02/17 08:26:14;;;;;;;25.67;17.45;;;15.00;99.90;;;;;;5075693;28;20031;-91
2023/02/17 08:28:40;;;;;;;33.95;18.55;;;14.90;99.90;;;;;;5074616;28;20111;-90
2023/02/17 08:31:05;;;;;;;29.25;19.08;;;15.20;99.90;;;;;;5075156;28;20025;-90
2023/02/17 08:33:31;;;;;;;30.55;20.45;;;14.60;99.90;;;;;;5075659;28;20024;-91
2023/02/17 08:35:57;;;;;;;32.17;20.58;;;13.80;99.90;;;;;;5074728;28;20024;-91
2023/02/17 08:38:23;;;;;;;33.13;20.90;;;12.90;99.90;;;;;;5074614;28;20393;-90
2023/02/17 08:40:48;;;;;;;39.28;23.30;;;13.00;99.90;;;;;;5074095;28;20080;-91
2023/02/17 08:43:14;;;;;;;33.33;23.10;;;15.70;99.90;;;;;;5075263;28;20036;-91
2023/02/17 08:45:40;;;;;;;33.33;20.95;;;14.80;99.90;;;;;;5075326;28;20032;-90
2023/02/17 08:48:06;;;;;;;40.25;21.60;;;12.90;99.90;;;;;;5075587;28;20028;-91
2023/02/17 08:50:32;;;;;;;33.58;20.88;;;11.40;99.90;;;;;;5075450;28;20067;-91
2023/02/17 08:52:58;;;;;;;39.63;20.92;;;10.90;99.90;;;;;;5074085;28;20040;-90
2023/02/17 08:55:24;;;;;;;29.45;21.35;;;10.80;99.90;;;;;;5075055;28;20032;-91
2023/02/17 08:57:49;;;;;;;42.20;24.48;;;10.50;99.90;;;;;;5075091;28;20115;-91
2023/02/17 09:00:16;;;;;;;40.05;25.58;;;10.30;99.90;;;;;;5076362;28;20020;-90
2023/02/17 09:02:43;;;;;;;41.85;28.65;;;10.50;99.90;;;;;;5076747;28;20078;-90
2023/02/17 09:05:11;;;;;;;40.97;27.73;;;11.00;99.90;;;;;;5076250;28;20477;-91
2023/02/17 09:07:37;;;;;;;43.92;28.10;;;12.30;99.90;;;;;;5075134;28;20397;-91
2023/02/17 09:10:05;;;;;;;44.55;29.13;;;14.40;99.90;;;;;;5075234;28;20039;-91
2023/02/17 09:12:32;;;;;;;44.92;29.50;;;15.70;99.90;;;;;;5074661;28;20035;-91
2023/02/17 09:14:57;;;;;;;40.53;27.83;;;17.20;99.90;;;;;;5073719;28;20025;-91
2023/02/17 09:17:24;;;;;;;49.75;28.70;;;19.20;99.90;;;;;;5074823;28;20032;-91
2023/02/17 09:19:49;;;;;;;41.92;28.38;;;20.90;99.90;;;;;;5074791;28;20029;-92
2023/02/17 09:22:16;;;;;;;38.05;27.33;;;22.10;99.90;;;;;;5072617;28;20021;-91
2023/02/17 09:24:42;;;;;;;39.88;28.08;;;22.70;99.90;;;;;;5074719;28;20025;-91
2023/02/17 09:27:08;;;;;;;41.97;27.13;;;22.00;99.90;;;;;;5074391;28;20082;-91
2023/02/17 09:29:36;;;;;;;38.95;28.58;;;22.90;99.90;;;;;;5074365;28;20028;-90
2023/02/17 09:32:08;;;;;;;41.90;28.77;;;24.00;99.90;;;;;;5074598;28;20021;-91
2023/02/17 09:34:38;;;;;;;38.08;27.27;;;24.30;99.90;;;;;;5073020;28;20106;-88
2023/02/17 09:37:11;;;;;;;38.55;27.95;;;23.80;99.90;;;;;;5074345;28;20055;-89
2023/02/17 09:39:36;;;;;;;35.13;28.35;;;24.50;99.90;;;;;;5074404;28;20024;-89
2023/02/17 09:42:02;;;;;;;36.90;27.10;;;25.90;99.90;;;;;;5073731;28;20048;-88
2023/02/17 09:44:45;;;;;;;35.83;27.25;;;26.00;99.90;;;;;;5074228;28;20051;-89
2023/02/17 09:47:22;;;;;;;39.15;28.08;;;26.30;99.90;;;;;;5074214;28;20107;-89
2023/02/17 09:49:55;;;;;;;38.35;27.02;;;26.20;99.90;;;;;;5074249;28;20444;-89
2023/02/17 09:52:34;;;;;;;36.90;25.92;;;26.40;99.90;;;;;;5074093;28;20024;-89
2023/02/17 09:55:06;;;;;;;32.45;24.63;;;26.20;99.90;;;;;;5073810;28;20036;-89
2023/02/17 09:57:39;;;;;;;31.85;24.73;;;27.20;99.90;;;;;;5073592;28;20024;-89
2023/02/17 10:00:22;;;;;;;30.02;23.52;;;27.30;99.90;;;;;;5073993;28;20035;-89
2023/02/17 10:03:24;;;;;;;26.60;23.45;;;27.10;99.90;;;;;;5073790;28;20032;-88
2023/02/17 10:05:58;;;;;;;29.25;21.55;;;27.80;99.90;;;;;;5073609;28;20460;-89
2023/02/17 10:08:30;;;;;;;28.98;22.70;;;27.30;99.90;;;;;;5073729;28;20028;-89
2023/02/17 10:11:06;;;;;;;25.50;22.48;;;28.70;99.90;;;;;;5072803;28;20032;-89
2023/02/17 10:13:33;;;;;;;29.65;24.60;;;26.80;99.90;;;;;;5073949;28;20428;-89
2023/02/17 10:16:05;;;;;;;24.70;21.98;;;26.80;99.90;;;;;;5075129;28;20032;-89
2023/02/17 10:18:36;;;;;;;27.83;23.58;;;28.30;99.90;;;;;;5073703;28;20107;-89
2023/02/17 10:21:25;;;;;;;32.15;26.83;;;27.70;99.90;;;;;;5073558;28;20024;-89
2023/02/17 10:23:51;;;;;;;27.80;24.13;;;27.30;99.90;;;;;;5073598;28;20028;-89
2023/02/17 10:26:29;;;;;;;47.35;36.35;;;28.80;99.90;;;;;;5072842;28;20078;-89
2023/02/17 10:29:06;;;;;;;35.72;27.38;;;29.40;99.90;;;;;;5073382;28;20079;-89
2023/02/17 10:31:44;;;;;;;30.30;26.08;;;29.30;99.90;;;;;;5073114;28;20095;-89
2023/02/17 10:34:21;;;;;;;26.70;22.92;;;29.20;99.90;;;;;;5073088;28;20060;-89
2023/02/17 10:37:01;;;;;;;28.17;22.52;;;30.60;99.90;;;;;;5073226;28;20043;-89
2023/02/17 10:39:50;;;;;;;28.73;22.17;;;30.00;99.90;;;;;;5072637;28;20131;-90
2023/02/17 10:42:27;;;;;;;34.00;21.00;;;30.20;99.90;;;;;;5072982;28;20048;-89
2023/02/17 10:45:03;;;;;;;24.50;20.05;;;30.00;99.90;;;;;;5073109;28;20492;-90
2023/02/17 10:47:30;;;;;;;23.33;20.45;;;29.90;99.90;;;;;;5071689;28;20111;-89
2023/02/17 10:49:57;;;;;;;25.30;20.60;;;30.80;99.90;;;;;;5073057;28;20028;-89
2023/02/17 10:52:51;;;;;;;21.83;19.52;;;30.90;99.90;;;;;;5073144;28;20097;-89
2023/02/17 10:55:34;;;;;;;21.90;19.25;;;31.50;99.90;;;;;;5071062;28;20101;-89
2023/02/17 10:58:10;;;;;;;20.90;16.35;;;31.90;99.90;;;;;;5072937;28;20024;-89
2023/02/17 11:00:36;;;;;;;19.15;15.57;;;30.00;99.90;;;;;;5072896;28;20115;-89
2023/02/17 11:03:01;;;;;;;20.15;16.30;;;25.60;99.90;;;;;;5072781;28;20100;-89
2023/02/17 11:05:33;;;;;;;17.42;15.63;;;24.80;99.90;;;;;;5072775;28;20104;-89
2023/02/17 11:08:07;;;;;;;20.95;16.15;;;23.30;99.90;;;;;;5073056;28;20035;-88
2023/02/17 11:10:36;;;;;;;18.13;16.17;;;22.10;99.90;;;;;;5071285;28;20491;-89
2023/02/17 11:13:16;;;;;;;20.65;16.60;;;21.60;99.90;;;;;;5071643;28;20456;-89
2023/02/17 11:15:46;;;;;;;19.38;16.67;;;21.10;99.90;;;;;;5072699;28;20082;-89
2023/02/17 11:18:20;;;;;;;19.42;15.52;;;21.20;99.90;;;;;;5071440;28;20029;-89
2023/02/17 11:20:46;;;;;;;18.83;14.85;;;21.70;99.90;;;;;;5072231;28;20058;-89
2023/02/17 11:23:15;;;;;;;19.33;15.77;;;21.80;99.90;;;;;;5073383;28;20031;-89
2023/02/17 11:25:42;;;;;;;17.00;15.05;;;21.50;99.90;;;;;;5075762;28;20103;-89
2023/02/17 11:28:13;;;;;;;18.13;15.57;;;21.70;99.90;;;;;;5073759;28;20036;-89
2023/02/17 11:30:48;;;;;;;19.92;14.90;;;22.30;99.90;;;;;;5072744;28;20055;-89
2023/02/17 11:33:21;;;;;;;21.80;15.90;;;23.60;99.90;;;;;;5072489;28;20473;-89
2023/02/17 11:35:53;;;;;;;17.63;15.32;;;24.30;99.90;;;;;;5072571;28;20037;-89
2023/02/17 11:38:21;;;;;;;19.25;17.08;;;24.70;99.90;;;;;;5072504;28;20020;-89
2023/02/17 11:40:58;;;;;;;18.52;15.30;;;24.00;99.90;;;;;;5072442;28;20040;-89
2023/02/17 11:43:27;;;;;;;18.45;15.55;;;25.30;99.90;;;;;;5072599;28;20028;-89
2023/02/17 11:45:55;;;;;;;17.13;14.65;;;25.00;99.90;;;;;;5075951;28;20047;-89
2023/02/17 11:48:36;;;;;;;17.20;14.98;;;24.90;99.90;;;;;;5076539;28;20030;-89
2023/02/17 11:51:09;;;;;;;17.25;14.05;;;26.00;99.90;;;;;;5075005;28;20036;-89
2023/02/17 11:53:54;;;;;;;18.10;14.73;;;26.40;99.90;;;;;;5074710;28;20400;-89
2023/02/17 11:56:24;;;;;;;17.67;14.20;;;27.90;99.90;;;;;;5076340;28;20127;-89
2023/02/17 11:59:07;;;;;;;15.10;12.93;;;29.40;99.90;;;;;;5076356;28;20037;-89
2023/02/17 12:01:35;;;;;;;18.17;14.20;;;30.20;99.90;;;;;;5076050;28;20074;-89
2023/02/17 12:04:10;;;;;;;15.98;14.30;;;28.30;99.90;;;;;;5076340;28;20081;-89
2023/02/17 12:06:53;;;;;;;17.85;13.60;;;30.20;99.90;;;;;;5074572;28;20162;-89
2023/02/17 12:09:47;;;;;;;14.90;12.57;;;30.30;99.90;;;;;;5076065;28;20021;-89
2023/02/17 12:12:21;;;;;;;15.32;12.70;;;29.30;99.90;;;;;;5076045;28;20025;-89
2023/02/17 12:15:08;;;;;;;16.23;13.43;;;30.30;99.90;;;;;;5076095;28;20378;-89
2023/02/17 12:17:48;;;;;;;14.13;12.57;;;31.30;99.90;;;;;;5075685;28;20028;-89
2023/02/17 12:20:44;;;;;;;16.42;13.45;;;30.70;99.90;;;;;;5074519;28;20505;-89
2023/02/17 12:23:26;;;;;;;15.77;13.57;;;30.70;99.90;;;;;;5075626;28;20174;-90
2023/02/17 12:26:05;;;;;;;15.68;12.70;;;31.20;99.90;;;;;;5075622;28;20067;-90
2023/02/17 12:28:50;;;;;;;17.80;13.40;;;30.60;99.90;;;;;;5075637;28;20025;-89
2023/02/17 12:31:34;;;;;;;17.17;13.15;;;30.50;99.90;;;;;;5075172;28;20049;-89
2023/02/17 12:34:19;;;;;;;17.63;12.85;;;29.80;99.90;;;;;;5076834;28;20028;-89
2023/02/17 12:36:46;;;;;;;17.52;12.93;;;30.50;99.90;;;;;;5074798;28;20093;-90
2023/02/17 12:39:44;;;;;;;15.27;12.88;;;30.30;99.90;;;;;;5074340;28;20020;-89
2023/02/17 12:42:18;;;;;;;16.80;12.45;;;29.20;99.90;;;;;;5070500;28;20433;-89
2023/02/17 12:44:49;;;;;;;17.23;12.40;;;29.90;99.90;;;;;;5074011;28;20028;-90
2023/02/17 12:47:20;;;;;;;13.45;11.98;;;29.20;99.90;;;;;;5075480;28;20107;-89
2023/02/17 12:50:12;;;;;;;13.65;11.80;;;28.90;99.90;;;;;;5074976;28;20048;-88
2023/02/17 12:52:41;;;;;;;11.43;9.63;;;28.90;99.90;;;;;;5066561;28;20548;-89